Terminal Aerodrome Forecast
Issued by NWS

Home | Current Version | Previous Version | Text Only | Print | Product List | Glossary On
Versions: 1 2 3 4 5 6 7 8 9 10 11 12 13
000
FTUS45 KABQ 291142
TAFGUP
TAF
KGUP 291142Z 2912/3012 VRB04KT P6SM SCT150
     FM291700 25007KT P6SM FEW100
     FM292100 33011KT P6SM VCSH BKN110
      TEMPO 2923/3002 VRB20G30KT -SHRA BKN100
     FM300400 17011KT P6SM BKN120
     FM300600 VRB04KT P6SM SCT150=

USA.gov is the U.S. government's official web portal to all federal, state and local government web resources and services.